createdAt,value
2022-08-12T00:02:11.039Z,9.75
2022-08-12T00:05:34.239Z,5.60
2022-08-12T00:08:57.897Z,10.02
2022-08-12T00:12:18.347Z,11.48
2022-08-12T00:15:39.108Z,7.70
2022-08-12T00:19:00.316Z,10.85
2022-08-12T00:22:21.251Z,17.27
2022-08-12T00:26:05.839Z,23.40
2022-08-12T00:29:23.211Z,19.10
2022-08-12T00:32:54.859Z,16.02
2022-08-12T00:36:34.840Z,15.57
2022-08-12T00:39:58.203Z,11.27
2022-08-12T00:43:00.760Z,14.05
2022-08-12T00:46:21.927Z,10.98
2022-08-12T00:49:25.029Z,11.33
2022-08-12T00:52:27.103Z,7.18
2022-08-12T00:55:29.307Z,17.03
2022-08-12T00:58:32.075Z,18.38
2022-08-12T01:02:10.541Z,20.83
2022-08-12T01:05:18.464Z,24.08
2022-08-12T01:08:49.675Z,20.92
2022-08-12T01:11:52.436Z,18.53
2022-08-12T01:14:54.891Z,25.38
2022-08-12T01:17:57.358Z,24.90
2022-08-12T01:21:24.725Z,21.95
2022-08-12T01:24:45.131Z,29.30
2022-08-12T01:27:50.650Z,27.10
2022-08-12T01:30:52.890Z,21.30
2022-08-12T01:34:35.923Z,23.13
2022-08-12T01:37:34.171Z,22.35
2022-08-12T01:40:40.451Z,20.27
2022-08-12T01:43:46.301Z,23.40
2022-08-12T01:47:29.677Z,15.43
2022-08-12T01:50:37.667Z,13.97
2022-08-12T01:54:06.553Z,19.60
2022-08-12T01:57:10.995Z,20.33
2022-08-12T02:00:19.057Z,15.60
2022-08-12T02:03:53.571Z,14.13
2022-08-12T02:07:35.396Z,13.60
2022-08-12T02:11:16.342Z,10.53
2022-08-12T02:15:02.883Z,17.60
2022-08-12T02:18:22.445Z,11.23
2022-08-12T02:21:47.644Z,20.00
2022-08-12T02:24:54.120Z,14.02
2022-08-12T02:27:56.995Z,13.00
2022-08-12T02:31:04.765Z,11.77
2022-08-12T02:34:08.787Z,13.73
2022-08-12T02:37:17.781Z,10.70
2022-08-12T02:40:21.621Z,13.33
2022-08-12T02:43:34.844Z,13.83
2022-08-12T02:46:39.131Z,8.07
2022-08-12T02:49:46.993Z,6.67
2022-08-12T02:52:52.270Z,11.30
2022-08-12T02:55:54.968Z,11.90
2022-08-12T02:58:59.963Z,11.47
2022-08-12T03:02:04.189Z,15.90
2022-08-12T03:05:06.878Z,12.20
2022-08-12T03:08:21.261Z,34.00
2022-08-12T03:11:50.044Z,17.07
2022-08-12T03:14:55.566Z,16.67
2022-08-12T03:18:25.654Z,11.77
2022-08-12T03:22:05.777Z,12.82
2022-08-12T03:24:58.163Z,17.60
2022-08-12T03:28:00.192Z,15.13
2022-08-12T03:31:05.795Z,11.10
2022-08-12T03:34:12.492Z,15.88
2022-08-12T03:37:16.451Z,11.73
2022-08-12T03:40:37.214Z,12.48
2022-08-12T03:44:06.900Z,13.70
2022-08-12T03:47:41.889Z,16.13
2022-08-12T03:51:04.893Z,12.98
2022-08-12T03:54:25.505Z,16.48
2022-08-12T03:57:48.591Z,11.77
2022-08-12T04:00:51.498Z,12.85
2022-08-12T04:03:54.760Z,22.73
2022-08-12T04:06:58.141Z,14.45
2022-08-12T04:10:00.591Z,18.90
2022-08-12T04:13:19.899Z,11.52
2022-08-12T04:16:22.377Z,10.63
2022-08-12T04:19:26.237Z,13.25
2022-08-12T04:22:30.386Z,11.18
2022-08-12T04:25:33.945Z,10.93
2022-08-12T04:28:36.471Z,14.05
2022-08-12T04:31:40.935Z,12.50
2022-08-12T04:34:44.518Z,18.67
2022-08-12T04:37:58.486Z,27.50
2022-08-12T04:41:04.329Z,21.33
2022-08-12T04:44:07.162Z,15.55
2022-08-12T04:47:16.564Z,21.17
2022-08-12T04:50:33.871Z,16.77
2022-08-12T04:53:39.971Z,35.88
2022-08-12T04:56:43.258Z,17.80
2022-08-12T05:00:23.393Z,17.02
2022-08-12T05:03:26.570Z,13.15
2022-08-12T05:06:28.757Z,10.98
2022-08-12T05:09:43.230Z,9.70
2022-08-12T05:12:57.686Z,9.82
2022-08-12T05:16:05.490Z,6.95
2022-08-12T05:19:18.767Z,8.93
2022-08-12T05:22:26.183Z,11.82
2022-08-12T05:25:28.490Z,11.50
2022-08-12T05:28:30.878Z,9.65
2022-08-12T05:31:45.502Z,12.75
2022-08-12T05:34:50.600Z,10.57
2022-08-12T05:38:12.742Z,15.38
2022-08-12T05:41:20.911Z,11.63
2022-08-12T05:44:23.065Z,10.88
2022-08-12T05:47:52.324Z,12.35
2022-08-12T05:50:47.947Z,24.42
2022-08-12T05:53:51.385Z,9.38
2022-08-12T05:56:54.022Z,8.50
2022-08-12T05:59:55.950Z,8.48
2022-08-12T06:03:02.069Z,11.65
2022-08-12T06:06:07.199Z,11.27
2022-08-12T06:09:11.416Z,7.95
2022-08-12T06:12:14.151Z,12.60
2022-08-12T06:15:20.583Z,10.63
2022-08-12T06:18:26.655Z,8.13
2022-08-12T06:21:31.831Z,5.30
2022-08-12T06:24:33.937Z,9.00
2022-08-12T06:28:07.255Z,8.55
2022-08-12T06:31:25.856Z,8.75
2022-08-12T06:35:27.172Z,4.65
2022-08-12T06:37:57.139Z,8.60
2022-08-12T06:41:20.184Z,4.53
2022-08-12T06:44:22.316Z,5.03
2022-08-12T06:47:24.737Z,5.70
2022-08-12T06:50:27.515Z,8.52
2022-08-12T06:53:32.917Z,4.07
2022-08-12T06:57:02.288Z,4.65
2022-08-12T06:59:57.301Z,8.77
2022-08-12T07:03:00.387Z,3.38
2022-08-12T07:06:23.995Z,5.22
2022-08-12T07:10:04.129Z,3.95
2022-08-12T07:12:49.012Z,6.28
2022-08-12T07:15:55.849Z,6.13
2022-08-12T07:18:58.985Z,5.43
2022-08-12T07:22:06.408Z,8.13
2022-08-12T07:25:27.473Z,10.63
2022-08-12T07:28:33.727Z,7.28
2022-08-12T07:31:39.557Z,4.18
2022-08-12T07:34:42.639Z,5.50
2022-08-12T07:37:44.782Z,10.95
2022-08-12T07:40:46.718Z,5.30
2022-08-12T07:43:52.074Z,6.15
2022-08-12T07:46:53.951Z,6.00
2022-08-12T07:50:04.615Z,4.35
2022-08-12T07:53:08.124Z,9.77
2022-08-12T07:56:11.349Z,5.18
2022-08-12T07:59:13.453Z,6.30
2022-08-12T08:02:15.659Z,3.55
2022-08-12T08:05:18.678Z,18.27
2022-08-12T08:08:28.455Z,7.97
2022-08-12T08:11:49.676Z,6.35
2022-08-12T08:14:55.854Z,5.10
2022-08-12T08:18:02.669Z,4.40
2022-08-12T08:21:05.399Z,10.10
2022-08-12T08:24:16.262Z,7.78
2022-08-12T08:27:18.524Z,3.28
2022-08-12T08:30:20.510Z,3.50
2022-08-12T08:34:08.962Z,2.90
2022-08-12T08:36:46.221Z,2.67
2022-08-12T08:39:48.419Z,3.80
2022-08-12T08:42:51.508Z,2.70
2022-08-12T08:45:56.527Z,4.28
2022-08-12T08:49:01.444Z,6.90
2022-08-12T08:52:05.151Z,4.50
2022-08-12T08:55:08.521Z,16.77
2022-08-12T08:58:11.927Z,2.47
2022-08-12T09:01:18.538Z,4.43
2022-08-12T09:05:14.553Z,3.30
2022-08-12T09:07:58.838Z,3.15
2022-08-12T09:12:07.259Z,3.35
2022-08-12T09:14:51.480Z,3.38
2022-08-12T09:17:57.053Z,2.75
2022-08-12T09:20:59.219Z,3.55
2022-08-12T09:24:07.912Z,2.33
2022-08-12T09:27:16.854Z,2.20
2022-08-12T09:30:42.425Z,2.35
2022-08-12T09:34:26.426Z,5.93
2022-08-12T09:37:20.287Z,3.13
2022-08-12T09:41:01.756Z,3.05
2022-08-12T09:44:38.051Z,7.22
2022-08-12T09:47:29.659Z,6.13
2022-08-12T09:50:36.618Z,6.47
2022-08-12T09:53:39.937Z,4.53
2022-08-12T09:57:03.197Z,3.60
2022-08-12T10:00:28.397Z,5.38
2022-08-12T10:03:33.855Z,2.55
2022-08-12T10:06:53.923Z,4.25
2022-08-12T10:09:59.232Z,7.05
2022-08-12T10:13:35.200Z,4.93
2022-08-12T10:16:44.128Z,5.57
2022-08-12T10:19:51.823Z,3.75
2022-08-12T10:23:01.846Z,3.22
2022-08-12T10:26:36.911Z,2.95
2022-08-12T10:30:03.670Z,7.25
2022-08-12T10:33:18.235Z,2.83
2022-08-12T10:36:40.482Z,6.90
2022-08-12T10:40:00.985Z,44.00
2022-08-12T10:43:24.171Z,18.02
2022-08-12T10:46:31.363Z,8.65
2022-08-12T10:50:03.556Z,3.33
2022-08-12T10:53:00.423Z,8.45
2022-08-12T10:56:02.809Z,3.33
2022-08-12T10:59:10.904Z,4.32
2022-08-12T11:04:23.647Z,5.57
2022-08-12T11:07:06.265Z,3.22
2022-08-12T11:09:07.246Z,2.88
2022-08-12T11:12:55.503Z,3.53
2022-08-12T11:16:04.346Z,5.60
2022-08-12T11:18:57.119Z,14.40
2022-08-12T11:22:03.005Z,4.43
2022-08-12T11:25:10.589Z,24.40
2022-08-12T11:28:15.975Z,11.32
2022-08-12T11:31:21.301Z,3.45
2022-08-12T11:34:51.891Z,5.07
2022-08-12T11:37:58.168Z,6.15
2022-08-12T11:41:05.052Z,6.03
2022-08-12T11:44:37.072Z,5.97
2022-08-12T11:47:29.186Z,3.45
2022-08-12T11:50:32.764Z,3.58
2022-08-12T11:53:57.135Z,3.53
2022-08-12T11:57:02.205Z,3.03
2022-08-12T12:03:44.024Z,4.10
2022-08-12T12:06:49.904Z,8.60
2022-08-12T12:09:55.769Z,3.20
2022-08-12T12:12:57.993Z,3.95
2022-08-12T12:16:00.196Z,4.03
2022-08-12T12:19:02.527Z,3.63
2022-08-12T12:22:04.499Z,4.38
2022-08-12T12:25:12.800Z,3.83
2022-08-12T12:28:37.154Z,8.70
2022-08-12T12:32:10.898Z,3.15
2022-08-12T12:35:14.404Z,2.95
2022-08-12T12:38:25.193Z,5.07
2022-08-12T12:42:41.753Z,7.45
2022-08-12T12:44:53.734Z,3.50
2022-08-12T12:48:16.071Z,2.70
2022-08-12T12:51:48.345Z,3.25
2022-08-12T12:54:52.602Z,5.70
2022-08-12T12:58:00.164Z,2.60
2022-08-12T13:01:04.756Z,38.40
2022-08-12T13:04:12.055Z,3.85
2022-08-12T13:07:15.526Z,3.63
2022-08-12T13:10:24.069Z,4.57
2022-08-12T13:14:07.524Z,4.32
2022-08-12T13:16:57.652Z,3.45
2022-08-12T13:20:01.471Z,15.63
2022-08-12T13:23:03.597Z,2.85
2022-08-12T13:26:25.601Z,2.85
2022-08-12T13:29:33.463Z,3.45
2022-08-12T13:32:37.345Z,3.33
2022-08-12T13:36:06.207Z,18.67
2022-08-12T13:39:05.100Z,7.00
2022-08-12T13:42:14.291Z,3.33
2022-08-12T13:45:16.826Z,6.60
2022-08-12T13:48:19.800Z,16.50
2022-08-12T13:51:24.504Z,3.83
2022-08-12T13:54:27.179Z,3.55
2022-08-12T13:57:44.432Z,8.10
2022-08-12T14:00:53.958Z,3.17
2022-08-12T14:03:58.203Z,4.28
2022-08-12T14:07:05.651Z,6.50
2022-08-12T14:10:28.312Z,3.78
2022-08-12T14:14:03.254Z,3.45
2022-08-12T14:16:58.246Z,3.58
2022-08-12T14:20:15.596Z,3.58
2022-08-12T14:24:04.083Z,3.60
2022-08-12T14:26:43.465Z,5.38
2022-08-12T14:30:06.253Z,3.40
2022-08-12T14:33:09.157Z,8.00
2022-08-12T14:36:13.195Z,3.72
2022-08-12T14:39:17.499Z,4.97
2022-08-12T14:42:20.217Z,4.35
2022-08-12T14:45:22.902Z,3.00
2022-08-12T14:48:25.716Z,6.47
2022-08-12T14:52:44.276Z,6.40
2022-08-12T14:58:14.550Z,5.47
2022-08-12T15:01:35.417Z,4.50
2022-08-12T15:04:39.644Z,5.10
2022-08-12T15:07:53.422Z,14.05
2022-08-12T15:11:06.309Z,3.35
2022-08-12T15:14:11.928Z,3.13
2022-08-12T15:17:38.251Z,10.63
2022-08-12T15:20:38.911Z,3.22
2022-08-12T15:23:55.100Z,3.10
2022-08-12T15:26:57.647Z,3.15
2022-08-12T15:30:01.198Z,3.70
2022-08-12T15:33:12.958Z,4.18
2022-08-12T15:36:50.291Z,5.43
2022-08-12T15:40:00.887Z,5.13
2022-08-12T15:43:08.257Z,9.95
2022-08-12T15:46:15.163Z,3.33
2022-08-12T15:49:18.914Z,3.30
2022-08-12T15:52:27.592Z,3.80
2022-08-12T15:55:33.513Z,3.63
2022-08-12T15:58:38.341Z,3.75
2022-08-12T16:01:41.503Z,6.13
2022-08-12T16:04:43.502Z,3.85
2022-08-12T16:07:51.080Z,4.80
2022-08-12T16:10:53.239Z,7.70
2022-08-12T16:13:55.513Z,5.43
2022-08-12T16:16:57.702Z,5.10
2022-08-12T16:20:04.200Z,5.43
2022-08-12T16:23:26.553Z,7.28
2022-08-12T16:26:34.860Z,15.65
2022-08-12T16:29:53.075Z,10.55
2022-08-12T16:32:58.632Z,9.27
2022-08-12T16:36:00.766Z,11.10
2022-08-12T16:39:04.055Z,7.38
2022-08-12T16:42:06.447Z,13.35
2022-08-12T16:45:13.747Z,3.45
2022-08-12T16:48:34.210Z,4.07
2022-08-12T16:51:40.675Z,12.00
2022-08-12T16:54:44.266Z,12.85
2022-08-12T16:57:48.584Z,6.10
2022-08-12T17:00:51.943Z,6.68
2022-08-12T17:04:08.349Z,7.57
2022-08-12T17:07:20.887Z,4.25
2022-08-12T17:10:36.579Z,11.50
2022-08-12T17:13:53.202Z,5.25
2022-08-12T17:16:56.054Z,9.18
2022-08-12T17:20:34.597Z,8.10
2022-08-12T17:23:28.536Z,9.90
2022-08-12T17:26:54.023Z,11.45
2022-08-12T17:30:00.780Z,4.03
2022-08-12T17:33:06.796Z,3.95
2022-08-12T17:36:10.611Z,22.35
2022-08-12T17:39:12.936Z,8.85
2022-08-12T17:42:34.249Z,5.28
2022-08-12T17:45:42.257Z,5.80
2022-08-12T17:48:55.247Z,5.68
2022-08-12T17:52:02.433Z,7.43
2022-08-12T17:55:40.263Z,9.82
2022-08-12T17:58:37.843Z,17.63
2022-08-12T18:01:45.381Z,18.20
2022-08-12T18:05:05.458Z,11.68
2022-08-12T18:08:11.960Z,14.75
2022-08-12T18:12:04.216Z,20.55
2022-08-12T18:15:01.980Z,21.50
2022-08-12T18:18:04.604Z,17.95
2022-08-12T18:21:10.892Z,21.48
2022-08-12T18:24:19.792Z,20.70
2022-08-12T18:27:29.821Z,18.88
2022-08-12T18:30:45.120Z,23.95
2022-08-12T18:34:00.773Z,24.38
2022-08-12T18:37:24.285Z,24.92
2022-08-12T18:40:47.035Z,15.20
2022-08-12T18:44:02.368Z,19.17
2022-08-12T18:47:09.603Z,16.75
2022-08-12T18:50:15.506Z,36.00
2022-08-12T18:54:05.519Z,38.47
2022-08-12T18:56:42.471Z,41.10
2022-08-12T19:00:02.371Z,46.17
2022-08-12T19:03:09.257Z,51.95
2022-08-12T19:06:38.258Z,77.28
2022-08-12T19:09:57.662Z,178.20
2022-08-12T19:13:24.549Z,100.70
2022-08-12T19:16:27.682Z,116.95
2022-08-12T19:19:41.290Z,49.13
2022-08-12T19:22:59.826Z,71.68
2022-08-12T19:26:10.584Z,54.20
2022-08-12T19:29:18.222Z,47.85
2022-08-12T19:32:23.666Z,58.33
2022-08-12T19:36:07.472Z,23.58
2022-08-12T19:38:57.951Z,85.28
2022-08-12T19:42:01.826Z,60.47
2022-08-12T19:45:05.164Z,24.83
2022-08-12T19:48:12.571Z,21.27
2022-08-12T19:51:33.392Z,17.75
2022-08-12T19:54:37.797Z,13.50
2022-08-12T19:58:02.439Z,8.30
2022-08-12T20:01:11.130Z,12.30
2022-08-12T20:04:14.090Z,13.02
2022-08-12T20:07:23.628Z,14.70
2022-08-12T20:10:36.389Z,15.23
2022-08-12T20:13:39.410Z,19.60
2022-08-12T20:16:52.831Z,30.25
2022-08-12T20:20:17.062Z,38.00
2022-08-12T20:23:50.524Z,17.35
2022-08-12T20:26:51.922Z,19.75
2022-08-12T20:29:54.631Z,20.48
2022-08-12T20:32:59.557Z,21.85
2022-08-12T20:36:13.006Z,15.30
2022-08-12T20:39:52.097Z,10.25
2022-08-12T20:42:50.528Z,17.33
2022-08-12T20:45:58.036Z,12.10
2022-08-12T20:49:17.507Z,22.70
2022-08-12T20:52:19.733Z,18.10
2022-08-12T20:55:22.026Z,11.02
2022-08-12T20:58:44.405Z,9.32
2022-08-12T21:01:49.054Z,14.70
2022-08-12T21:05:16.250Z,13.90
2022-08-12T21:08:22.192Z,39.10
2022-08-12T21:11:24.535Z,59.55
2022-08-12T21:14:39.620Z,18.65
2022-08-12T21:18:11.047Z,11.48
2022-08-12T21:21:46.842Z,14.23
2022-08-12T21:24:46.946Z,13.13
2022-08-12T21:27:59.024Z,16.10
2022-08-12T21:32:34.485Z,18.38
2022-08-12T21:34:29.121Z,12.82
2022-08-12T21:37:31.846Z,12.95
2022-08-12T21:40:51.800Z,11.68
2022-08-12T21:44:08.778Z,16.30
2022-08-12T21:47:28.641Z,12.35
2022-08-12T21:50:33.399Z,18.95
2022-08-12T21:54:06.812Z,11.85
2022-08-12T21:56:57.605Z,15.32
2022-08-12T21:59:59.742Z,12.77
2022-08-12T22:04:04.094Z,14.57
2022-08-12T22:06:53.635Z,16.02
2022-08-12T22:09:57.100Z,15.77
2022-08-12T22:13:01.091Z,17.42
2022-08-12T22:16:03.560Z,16.77
2022-08-12T22:19:06.407Z,16.33
2022-08-12T22:22:08.373Z,14.07
2022-08-12T22:25:14.124Z,22.80
2022-08-12T22:28:38.770Z,17.80
2022-08-12T22:31:41.799Z,18.58
2022-08-12T22:34:44.594Z,19.98
2022-08-12T22:37:46.859Z,17.65
2022-08-12T22:40:52.038Z,11.75
2022-08-12T22:44:13.444Z,12.23
2022-08-12T22:47:53.376Z,10.32
2022-08-12T22:50:59.395Z,11.77
2022-08-12T22:54:01.454Z,10.52
2022-08-12T22:57:04.152Z,9.65
2022-08-12T23:00:10.164Z,10.57
2022-08-12T23:03:49.476Z,10.95
2022-08-12T23:06:51.810Z,12.02
2022-08-12T23:09:54.915Z,9.85
2022-08-12T23:13:15.818Z,7.93
2022-08-12T23:16:29.011Z,7.85
2022-08-12T23:19:38.425Z,8.00
2022-08-12T23:23:09.065Z,7.10
2022-08-12T23:26:10.075Z,6.68
2022-08-12T23:29:29.713Z,8.15
2022-08-12T23:32:37.477Z,8.25
2022-08-12T23:35:53.602Z,8.50
2022-08-12T23:39:03.907Z,9.25
2022-08-12T23:42:17.799Z,7.80
2022-08-12T23:45:31.218Z,8.18
2022-08-12T23:48:37.596Z,7.40
2022-08-12T23:51:39.830Z,6.82
2022-08-12T23:54:46.753Z,7.38
2022-08-12T23:58:21.222Z,7.22
